sensor_id;sensor_type;location;lat;lon;timestamp;pressure;altitude;pressure_sealevel;temperature;humidity
27685;BME280;46113;50.130;8.526;2023-06-14T00:01:31;98823.84;;;10.47;51.64
27685;BME280;46113;50.130;8.526;2023-06-14T00:04:01;98832.44;;;10.51;51.96
27685;BME280;46113;50.130;8.526;2023-06-14T00:06:29;98822.75;;;10.37;52.06
27685;BME280;46113;50.130;8.526;2023-06-14T00:08:56;98823.44;;;10.26;52.08
27685;BME280;46113;50.130;8.526;2023-06-14T00:11:22;98824.19;;;10.28;51.92
27685;BME280;46113;50.130;8.526;2023-06-14T00:13:49;98814.66;;;10.26;51.92
27685;BME280;46113;50.130;8.526;2023-06-14T00:16:16;98829.84;;;10.22;52.36
27685;BME280;46113;50.130;8.526;2023-06-14T00:18:43;98827.00;;;10.40;51.97
27685;BME280;46113;50.130;8.526;2023-06-14T00:21:10;98831.34;;;10.41;51.93
27685;BME280;46113;50.130;8.526;2023-06-14T00:23:36;98827.59;;;10.30;51.78
27685;BME280;46113;50.130;8.526;2023-06-14T00:26:03;98826.78;;;10.01;52.77
27685;BME280;46113;50.130;8.526;2023-06-14T00:28:30;98833.47;;;9.92;53.54
27685;BME280;46113;50.130;8.526;2023-06-14T00:30:56;98825.81;;;10.16;52.79
27685;BME280;46113;50.130;8.526;2023-06-14T00:33:23;98834.31;;;10.21;52.84
27685;BME280;46113;50.130;8.526;2023-06-14T00:35:51;98830.25;;;10.01;53.14
27685;BME280;46113;50.130;8.526;2023-06-14T00:38:20;98823.75;;;10.07;52.86
27685;BME280;46113;50.130;8.526;2023-06-14T00:40:47;98836.88;;;10.08;53.26
27685;BME280;46113;50.130;8.526;2023-06-14T00:43:14;98834.72;;;9.86;53.25
27685;BME280;46113;50.130;8.526;2023-06-14T00:45:42;98837.16;;;9.75;53.66
27685;BME280;46113;50.130;8.526;2023-06-14T00:48:09;98833.22;;;9.82;53.55
27685;BME280;46113;50.130;8.526;2023-06-14T00:50:37;98838.44;;;9.67;54.05
27685;BME280;46113;50.130;8.526;2023-06-14T00:53:04;98837.31;;;9.72;53.30
27685;BME280;46113;50.130;8.526;2023-06-14T00:55:31;98828.31;;;9.90;53.21
27685;BME280;46113;50.130;8.526;2023-06-14T00:57:59;98833.13;;;9.98;53.14
27685;BME280;46113;50.130;8.526;2023-06-14T01:00:26;98832.88;;;9.58;53.36
27685;BME280;46113;50.130;8.526;2023-06-14T01:02:55;98832.22;;;9.68;54.18
27685;BME280;46113;50.130;8.526;2023-06-14T01:05:23;98833.06;;;9.69;53.91
27685;BME280;46113;50.130;8.526;2023-06-14T01:11:02;98847.00;;;9.56;53.11
27685;BME280;46113;50.130;8.526;2023-06-14T01:13:34;98835.03;;;9.51;54.07
27685;BME280;46113;50.130;8.526;2023-06-14T01:16:02;98833.09;;;9.24;55.37
27685;BME280;46113;50.130;8.526;2023-06-14T01:18:30;98840.47;;;9.33;55.17
27685;BME280;46113;50.130;8.526;2023-06-14T01:20:58;98829.47;;;9.55;54.18
27685;BME280;46113;50.130;8.526;2023-06-14T01:23:24;98825.47;;;9.19;54.83
27685;BME280;46113;50.130;8.526;2023-06-14T01:25:51;98825.91;;;9.42;54.52
27685;BME280;46113;50.130;8.526;2023-06-14T01:28:21;98824.00;;;9.44;53.95
27685;BME280;46113;50.130;8.526;2023-06-14T01:30:53;98831.78;;;9.16;54.39
27685;BME280;46113;50.130;8.526;2023-06-14T01:33:24;98831.63;;;9.34;54.58
27685;BME280;46113;50.130;8.526;2023-06-14T01:35:53;98829.25;;;9.29;54.76
27685;BME280;46113;50.130;8.526;2023-06-14T01:38:26;98827.50;;;9.45;54.25
27685;BME280;46113;50.130;8.526;2023-06-14T01:40:55;98827.75;;;9.40;54.49
27685;BME280;46113;50.130;8.526;2023-06-14T01:43:25;98830.56;;;9.22;54.76
27685;BME280;46113;50.130;8.526;2023-06-14T01:45:53;98834.13;;;9.21;55.57
27685;BME280;46113;50.130;8.526;2023-06-14T01:48:21;98830.19;;;9.28;54.90
27685;BME280;46113;50.130;8.526;2023-06-14T01:50:49;98826.09;;;9.08;55.44
27685;BME280;46113;50.130;8.526;2023-06-14T01:53:16;98824.38;;;9.07;55.19
27685;BME280;46113;50.130;8.526;2023-06-14T01:55:43;98825.34;;;9.06;55.06
27685;BME280;46113;50.130;8.526;2023-06-14T01:58:10;98824.38;;;9.07;55.08
27685;BME280;46113;50.130;8.526;2023-06-14T02:00:37;98833.16;;;9.08;54.98
27685;BME280;46113;50.130;8.526;2023-06-14T02:03:04;98825.50;;;9.03;55.61
27685;BME280;46113;50.130;8.526;2023-06-14T02:05:31;98827.88;;;8.77;56.46
27685;BME280;46113;50.130;8.526;2023-06-14T02:07:57;98826.25;;;8.74;56.37
27685;BME280;46113;50.130;8.526;2023-06-14T02:10:24;98825.91;;;8.81;55.98
27685;BME280;46113;50.130;8.526;2023-06-14T02:12:54;98830.16;;;8.83;56.23
27685;BME280;46113;50.130;8.526;2023-06-14T02:15:20;98831.38;;;8.77;56.98
27685;BME280;46113;50.130;8.526;2023-06-14T02:17:48;98842.78;;;8.62;56.70
27685;BME280;46113;50.130;8.526;2023-06-14T02:20:18;98843.09;;;8.72;56.98
27685;BME280;46113;50.130;8.526;2023-06-14T02:22:45;98851.34;;;8.33;58.19
27685;BME280;46113;50.130;8.526;2023-06-14T02:25:12;98856.22;;;8.41;57.71
27685;BME280;46113;50.130;8.526;2023-06-14T02:27:40;98849.56;;;8.82;56.79
27685;BME280;46113;50.130;8.526;2023-06-14T02:33:04;98855.47;;;8.71;57.24
27685;BME280;46113;50.130;8.526;2023-06-14T02:35:31;98856.81;;;8.62;57.12
27685;BME280;46113;50.130;8.526;2023-06-14T02:37:59;98853.41;;;8.76;56.00
27685;BME280;46113;50.130;8.526;2023-06-14T02:40:26;98856.63;;;8.66;57.15
27685;BME280;46113;50.130;8.526;2023-06-14T02:42:53;98864.53;;;8.33;57.69
27685;BME280;46113;50.130;8.526;2023-06-14T02:45:19;98863.28;;;7.91;59.20
27685;BME280;46113;50.130;8.526;2023-06-14T02:47:47;98860.47;;;7.94;59.60
27685;BME280;46113;50.130;8.526;2023-06-14T02:50:14;98863.50;;;8.20;58.84
27685;BME280;46113;50.130;8.526;2023-06-14T02:52:43;98871.41;;;8.20;58.69
27685;BME280;46113;50.130;8.526;2023-06-14T02:55:11;98871.84;;;8.44;57.69
27685;BME280;46113;50.130;8.526;2023-06-14T02:57:38;98869.63;;;8.20;57.23
27685;BME280;46113;50.130;8.526;2023-06-14T03:00:08;98874.28;;;8.31;58.18
27685;BME280;46113;50.130;8.526;2023-06-14T03:02:37;98868.50;;;8.08;58.75
27685;BME280;46113;50.130;8.526;2023-06-14T03:05:04;98872.31;;;8.03;59.33
27685;BME280;46113;50.130;8.526;2023-06-14T03:07:34;98881.81;;;8.05;59.42
27685;BME280;46113;50.130;8.526;2023-06-14T03:10:03;98876.81;;;8.17;58.70
27685;BME280;46113;50.130;8.526;2023-06-14T03:12:30;98879.47;;;8.17;58.92
27685;BME280;46113;50.130;8.526;2023-06-14T03:14:57;98882.03;;;8.34;58.28
27685;BME280;46113;50.130;8.526;2023-06-14T03:17:31;98885.06;;;8.10;59.54
27685;BME280;46113;50.130;8.526;2023-06-14T03:20:02;98880.22;;;8.03;59.56
27685;BME280;46113;50.130;8.526;2023-06-14T03:22:30;98882.53;;;8.25;58.35
27685;BME280;46113;50.130;8.526;2023-06-14T03:24:58;98881.19;;;8.34;58.04
27685;BME280;46113;50.130;8.526;2023-06-14T03:27:28;98882.13;;;8.33;58.71
27685;BME280;46113;50.130;8.526;2023-06-14T03:29:55;98884.88;;;8.47;57.67
27685;BME280;46113;50.130;8.526;2023-06-14T03:32:22;98881.38;;;8.47;58.05
27685;BME280;46113;50.130;8.526;2023-06-14T03:34:49;98892.22;;;8.58;57.78
27685;BME280;46113;50.130;8.526;2023-06-14T03:37:21;98895.53;;;8.62;57.47
27685;BME280;46113;50.130;8.526;2023-06-14T03:39:48;98891.00;;;8.64;56.89
27685;BME280;46113;50.130;8.526;2023-06-14T03:42:19;98885.50;;;8.69;57.08
27685;BME280;46113;50.130;8.526;2023-06-14T03:44:47;98887.69;;;8.76;57.20
27685;BME280;46113;50.130;8.526;2023-06-14T03:47:16;98890.66;;;8.86;57.16
27685;BME280;46113;50.130;8.526;2023-06-14T03:49:43;98886.84;;;8.76;57.98
27685;BME280;46113;50.130;8.526;2023-06-14T03:52:10;98892.41;;;8.86;58.45
27685;BME280;46113;50.130;8.526;2023-06-14T03:54:39;98895.66;;;8.91;57.56
27685;BME280;46113;50.130;8.526;2023-06-14T03:57:27;98898.56;;;8.86;58.43
27685;BME280;46113;50.130;8.526;2023-06-14T03:59:55;98910.66;;;8.90;57.79
27685;BME280;46113;50.130;8.526;2023-06-14T04:02:23;98910.66;;;8.90;58.82
27685;BME280;46113;50.130;8.526;2023-06-14T04:04:50;98907.56;;;9.14;58.02
27685;BME280;46113;50.130;8.526;2023-06-14T04:07:18;98914.91;;;9.24;57.55
27685;BME280;46113;50.130;8.526;2023-06-14T04:09:48;98914.66;;;9.28;58.21
27685;BME280;46113;50.130;8.526;2023-06-14T04:12:14;98912.91;;;9.43;58.04
27685;BME280;46113;50.130;8.526;2023-06-14T04:14:42;98925.66;;;9.21;58.40
27685;BME280;46113;50.130;8.526;2023-06-14T04:17:10;98924.94;;;9.33;58.88
27685;BME280;46113;50.130;8.526;2023-06-14T04:19:37;98925.56;;;9.53;57.47
27685;BME280;46113;50.130;8.526;2023-06-14T04:22:05;98927.66;;;9.93;57.44
27685;BME280;46113;50.130;8.526;2023-06-14T04:24:34;98928.69;;;10.19;57.31
27685;BME280;46113;50.130;8.526;2023-06-14T04:27:01;98932.13;;;10.36;55.81
27685;BME280;46113;50.130;8.526;2023-06-14T04:29:29;98924.84;;;10.25;55.53
27685;BME280;46113;50.130;8.526;2023-06-14T04:32:00;98938.13;;;10.53;53.37
27685;BME280;46113;50.130;8.526;2023-06-14T04:34:28;98932.16;;;11.06;53.08
27685;BME280;46113;50.130;8.526;2023-06-14T04:37:01;98933.91;;;11.47;51.09
27685;BME280;46113;50.130;8.526;2023-06-14T04:39:34;98942.25;;;11.54;52.17
27685;BME280;46113;50.130;8.526;2023-06-14T04:42:01;98943.78;;;11.71;52.01
27685;BME280;46113;50.130;8.526;2023-06-14T04:44:30;98942.78;;;11.59;48.83
27685;BME280;46113;50.130;8.526;2023-06-14T04:47:01;98942.44;;;12.17;49.61
27685;BME280;46113;50.130;8.526;2023-06-14T04:49:27;98950.72;;;12.13;49.71
27685;BME280;46113;50.130;8.526;2023-06-14T04:51:57;98955.72;;;12.17;46.48
27685;BME280;46113;50.130;8.526;2023-06-14T04:54:28;98949.59;;;12.67;47.18
27685;BME280;46113;50.130;8.526;2023-06-14T04:56:59;98952.94;;;12.82;48.60
27685;BME280;46113;50.130;8.526;2023-06-14T04:59:27;98956.97;;;12.88;48.65
27685;BME280;46113;50.130;8.526;2023-06-14T05:01:54;98956.09;;;12.88;45.45
27685;BME280;46113;50.130;8.526;2023-06-14T05:04:23;98961.81;;;13.07;45.47
27685;BME280;46113;50.130;8.526;2023-06-14T05:06:52;98965.06;;;12.73;46.14
27685;BME280;46113;50.130;8.526;2023-06-14T05:09:21;98964.66;;;13.17;45.82
27685;BME280;46113;50.130;8.526;2023-06-14T05:11:49;98960.16;;;12.80;45.33
27685;BME280;46113;50.130;8.526;2023-06-14T05:14:16;98963.34;;;13.47;44.62
27685;BME280;46113;50.130;8.526;2023-06-14T05:16:46;98961.44;;;14.08;43.28
27685;BME280;46113;50.130;8.526;2023-06-14T05:19:15;98965.34;;;13.79;43.93
27685;BME280;46113;50.130;8.526;2023-06-14T05:21:44;98953.09;;;14.13;43.10
27685;BME280;46113;50.130;8.526;2023-06-14T05:24:11;98960.03;;;14.27;42.69
27685;BME280;46113;50.130;8.526;2023-06-14T05:26:38;98953.72;;;14.16;42.52
27685;BME280;46113;50.130;8.526;2023-06-14T05:29:05;98955.13;;;13.98;43.37
27685;BME280;46113;50.130;8.526;2023-06-14T05:31:34;98953.31;;;14.78;41.87
27685;BME280;46113;50.130;8.526;2023-06-14T05:34:04;98951.03;;;15.29;41.41
27685;BME280;46113;50.130;8.526;2023-06-14T05:36:30;98959.16;;;15.28;41.63
27685;BME280;46113;50.130;8.526;2023-06-14T05:38:57;98964.03;;;15.11;40.77
27685;BME280;46113;50.130;8.526;2023-06-14T05:41:26;98954.66;;;15.82;40.73
27685;BME280;46113;50.130;8.526;2023-06-14T05:43:56;98963.06;;;16.61;38.80
27685;BME280;46113;50.130;8.526;2023-06-14T05:46:24;98970.94;;;16.63;38.33
27685;BME280;46113;50.130;8.526;2023-06-14T05:48:53;98969.66;;;16.88;38.15
27685;BME280;46113;50.130;8.526;2023-06-14T05:51:21;98960.81;;;17.07;37.07
27685;BME280;46113;50.130;8.526;2023-06-14T05:54:01;98964.66;;;17.54;36.17
27685;BME280;46113;50.130;8.526;2023-06-14T05:56:28;98968.28;;;17.93;36.30
27685;BME280;46113;50.130;8.526;2023-06-14T05:58:55;98961.72;;;18.25;35.55
27685;BME280;46113;50.130;8.526;2023-06-14T06:01:24;98969.41;;;18.76;35.06
27685;BME280;46113;50.130;8.526;2023-06-14T06:03:51;98971.19;;;18.85;34.78
27685;BME280;46113;50.130;8.526;2023-06-14T06:06:18;98964.31;;;19.01;34.14
27685;BME280;46113;50.130;8.526;2023-06-14T06:08:45;98969.75;;;18.91;34.44
27685;BME280;46113;50.130;8.526;2023-06-14T06:11:12;98965.69;;;18.87;34.10
27685;BME280;46113;50.130;8.526;2023-06-14T06:13:39;98953.56;;;19.65;33.62
27685;BME280;46113;50.130;8.526;2023-06-14T06:16:07;98958.13;;;20.44;32.24
27685;BME280;46113;50.130;8.526;2023-06-14T06:18:34;98969.72;;;20.88;31.29
27685;BME280;46113;50.130;8.526;2023-06-14T06:21:01;98964.25;;;20.28;32.08
27685;BME280;46113;50.130;8.526;2023-06-14T06:23:29;98965.47;;;21.95;29.86
27685;BME280;46113;50.130;8.526;2023-06-14T06:25:56;98974.56;;;20.84;31.60
27685;BME280;46113;50.130;8.526;2023-06-14T06:28:23;98974.50;;;23.07;28.23
27685;BME280;46113;50.130;8.526;2023-06-14T06:30:50;98971.53;;;21.72;29.36
27685;BME280;46113;50.130;8.526;2023-06-14T06:33:17;98970.09;;;23.14;28.35
27685;BME280;46113;50.130;8.526;2023-06-14T06:35:44;98969.31;;;22.74;28.22
27685;BME280;46113;50.130;8.526;2023-06-14T06:38:12;98970.19;;;22.58;28.53
27685;BME280;46113;50.130;8.526;2023-06-14T06:40:38;98975.09;;;19.74;32.95
27685;BME280;46113;50.130;8.526;2023-06-14T06:43:05;98971.13;;;22.33;29.40
27685;BME280;46113;50.130;8.526;2023-06-14T06:45:40;98968.16;;;22.03;30.31
27685;BME280;46113;50.130;8.526;2023-06-14T06:48:07;98967.31;;;22.99;28.18
27685;BME280;46113;50.130;8.526;2023-06-14T06:50:34;98980.09;;;22.74;28.26
27685;BME280;46113;50.130;8.526;2023-06-14T06:53:00;98976.59;;;22.65;28.53
27685;BME280;46113;50.130;8.526;2023-06-14T06:55:27;98978.59;;;22.71;29.28
27685;BME280;46113;50.130;8.526;2023-06-14T06:57:54;98979.91;;;23.39;28.17
27685;BME280;46113;50.130;8.526;2023-06-14T07:00:21;98974.88;;;23.36;28.29
27685;BME280;46113;50.130;8.526;2023-06-14T07:02:48;98973.50;;;24.17;26.77
27685;BME280;46113;50.130;8.526;2023-06-14T07:05:15;98980.44;;;23.58;27.24
27685;BME280;46113;50.130;8.526;2023-06-14T07:07:42;98981.03;;;23.45;28.12
27685;BME280;46113;50.130;8.526;2023-06-14T07:10:11;98985.69;;;24.88;26.50
27685;BME280;46113;50.130;8.526;2023-06-14T07:12:42;98987.22;;;24.76;26.05
27685;BME280;46113;50.130;8.526;2023-06-14T07:15:09;98991.50;;;23.86;26.87
27685;BME280;46113;50.130;8.526;2023-06-14T07:17:36;98979.28;;;22.57;29.38
27685;BME280;46113;50.130;8.526;2023-06-14T07:20:04;98982.13;;;23.35;28.96
27685;BME280;46113;50.130;8.526;2023-06-14T07:22:41;98993.72;;;21.82;30.00
27685;BME280;46113;50.130;8.526;2023-06-14T07:25:10;98994.41;;;21.76;30.28
27685;BME280;46113;50.130;8.526;2023-06-14T07:27:44;98980.91;;;22.74;29.20
27685;BME280;46113;50.130;8.526;2023-06-14T07:30:11;98990.19;;;25.18;25.94
27685;BME280;46113;50.130;8.526;2023-06-14T07:32:38;98976.44;;;23.22;28.27
27685;BME280;46113;50.130;8.526;2023-06-14T07:35:05;98975.13;;;27.35;24.16
27685;BME280;46113;50.130;8.526;2023-06-14T07:37:33;98972.66;;;26.29;24.88
27685;BME280;46113;50.130;8.526;2023-06-14T07:40:00;98979.25;;;26.55;24.22
27685;BME280;46113;50.130;8.526;2023-06-14T07:42:26;98972.56;;;26.58;24.26
27685;BME280;46113;50.130;8.526;2023-06-14T07:44:53;98978.94;;;25.58;25.92
27685;BME280;46113;50.130;8.526;2023-06-14T07:47:20;98979.53;;;26.32;24.36
27685;BME280;46113;50.130;8.526;2023-06-14T07:49:47;98977.75;;;25.38;25.75
27685;BME280;46113;50.130;8.526;2023-06-14T07:52:14;98980.13;;;24.14;27.70
27685;BME280;46113;50.130;8.526;2023-06-14T07:54:40;98978.16;;;24.38;27.74
27685;BME280;46113;50.130;8.526;2023-06-14T07:57:07;98980.19;;;24.96;26.93
27685;BME280;46113;50.130;8.526;2023-06-14T07:59:35;98972.81;;;27.12;24.56
27685;BME280;46113;50.130;8.526;2023-06-14T08:02:02;98979.53;;;25.75;24.17
27685;BME280;46113;50.130;8.526;2023-06-14T08:04:29;98976.06;;;29.15;22.05
27685;BME280;46113;50.130;8.526;2023-06-14T08:06:56;98975.94;;;29.03;21.67
27685;BME280;46113;50.130;8.526;2023-06-14T08:09:24;98989.44;;;28.78;20.89
27685;BME280;46113;50.130;8.526;2023-06-14T08:11:51;98979.34;;;29.63;18.99
27685;BME280;46113;50.130;8.526;2023-06-14T08:14:18;98980.22;;;30.08;19.34
27685;BME280;46113;50.130;8.526;2023-06-14T08:16:45;98985.66;;;32.11;17.97
27685;BME280;46113;50.130;8.526;2023-06-14T08:19:12;98989.91;;;30.67;18.14
27685;BME280;46113;50.130;8.526;2023-06-14T08:21:39;98984.59;;;30.09;18.63
27685;BME280;46113;50.130;8.526;2023-06-14T08:24:06;98983.22;;;30.25;19.11
27685;BME280;46113;50.130;8.526;2023-06-14T08:26:41;98987.44;;;28.53;19.85
27685;BME280;46113;50.130;8.526;2023-06-14T08:29:08;98985.28;;;26.93;21.62
27685;BME280;46113;50.130;8.526;2023-06-14T08:31:35;98983.19;;;25.67;22.63
27685;BME280;46113;50.130;8.526;2023-06-14T08:34:01;98975.84;;;25.61;22.64
27685;BME280;46113;50.130;8.526;2023-06-14T08:36:32;98973.50;;;28.09;20.90
27685;BME280;46113;50.130;8.526;2023-06-14T08:38:59;98979.75;;;26.79;22.88
27685;BME280;46113;50.130;8.526;2023-06-14T08:41:28;98988.16;;;27.60;21.21
27685;BME280;46113;50.130;8.526;2023-06-14T08:43:56;98986.91;;;28.83;19.20
27685;BME280;46113;50.130;8.526;2023-06-14T08:46:25;98975.59;;;30.83;18.15
27685;BME280;46113;50.130;8.526;2023-06-14T08:48:55;98975.81;;;31.86;16.87
27685;BME280;46113;50.130;8.526;2023-06-14T08:51:25;98982.31;;;32.08;16.72
27685;BME280;46113;50.130;8.526;2023-06-14T08:53:55;98991.72;;;32.01;17.29
27685;BME280;46113;50.130;8.526;2023-06-14T08:56:28;98995.44;;;27.94;19.47
27685;BME280;46113;50.130;8.526;2023-06-14T08:58:57;98992.09;;;27.51;21.43
27685;BME280;46113;50.130;8.526;2023-06-14T09:01:24;98990.66;;;27.55;20.58
27685;BME280;46113;50.130;8.526;2023-06-14T09:03:51;98995.75;;;28.72;20.34
27685;BME280;46113;50.130;8.526;2023-06-14T09:06:18;98998.66;;;27.08;20.96
27685;BME280;46113;50.130;8.526;2023-06-14T09:08:46;98991.09;;;26.48;21.54
27685;BME280;46113;50.130;8.526;2023-06-14T09:11:17;98987.50;;;27.79;20.52
27685;BME280;46113;50.130;8.526;2023-06-14T09:13:46;98999.28;;;29.57;18.42
27685;BME280;46113;50.130;8.526;2023-06-14T09:16:13;98998.78;;;28.09;20.24
27685;BME280;46113;50.130;8.526;2023-06-14T09:18:42;98999.88;;;31.22;18.03
27685;BME280;46113;50.130;8.526;2023-06-14T09:21:15;99011.00;;;29.90;18.10
27685;BME280;46113;50.130;8.526;2023-06-14T09:23:44;99006.34;;;27.87;20.67
27685;BME280;46113;50.130;8.526;2023-06-14T09:26:14;99011.06;;;31.02;18.19
27685;BME280;46113;50.130;8.526;2023-06-14T09:28:42;99014.03;;;29.75;19.10
27685;BME280;46113;50.130;8.526;2023-06-14T09:36:21;99023.94;;;25.59;23.89
27685;BME280;46113;50.130;8.526;2023-06-14T09:38:53;99027.91;;;24.89;24.33
27685;BME280;46113;50.130;8.526;2023-06-14T09:41:30;99026.47;;;24.03;26.11
27685;BME280;46113;50.130;8.526;2023-06-14T09:43:59;99022.53;;;23.44;26.04
27685;BME280;46113;50.130;8.526;2023-06-14T09:46:36;99022.19;;;22.75;27.59
27685;BME280;46113;50.130;8.526;2023-06-14T09:49:04;99026.81;;;22.41;28.52
27685;BME280;46113;50.130;8.526;2023-06-14T09:51:32;99024.59;;;22.61;28.06
27685;BME280;46113;50.130;8.526;2023-06-14T09:54:01;99029.72;;;21.90;29.29
27685;BME280;46113;50.130;8.526;2023-06-14T09:56:38;99020.09;;;22.45;28.39
27685;BME280;46113;50.130;8.526;2023-06-14T09:59:09;99023.81;;;23.24;27.65
27685;BME280;46113;50.130;8.526;2023-06-14T10:01:42;99020.25;;;23.56;27.33
27685;BME280;46113;50.130;8.526;2023-06-14T10:04:10;99009.03;;;23.67;26.10
27685;BME280;46113;50.130;8.526;2023-06-14T10:06:40;99014.31;;;23.05;27.25
27685;BME280;46113;50.130;8.526;2023-06-14T10:09:09;99014.84;;;22.52;27.37
27685;BME280;46113;50.130;8.526;2023-06-14T10:11:38;99010.31;;;22.44;28.08
27685;BME280;46113;50.130;8.526;2023-06-14T10:14:12;99018.13;;;21.64;28.91
27685;BME280;46113;50.130;8.526;2023-06-14T10:16:58;99021.00;;;21.71;28.87
27685;BME280;46113;50.130;8.526;2023-06-14T10:19:34;99024.28;;;21.40;29.71
27685;BME280;46113;50.130;8.526;2023-06-14T10:24:42;99012.59;;;22.07;29.25
27685;BME280;46113;50.130;8.526;2023-06-14T10:27:09;99011.41;;;22.02;27.84
27685;BME280;46113;50.130;8.526;2023-06-14T10:32:27;99007.16;;;22.16;27.37
27685;BME280;46113;50.130;8.526;2023-06-14T10:34:57;99009.03;;;21.49;29.33
27685;BME280;46113;50.130;8.526;2023-06-14T10:37:24;99020.56;;;20.73;30.20
27685;BME280;46113;50.130;8.526;2023-06-14T10:39:51;99017.84;;;21.16;28.90
27685;BME280;46113;50.130;8.526;2023-06-14T10:42:19;99015.63;;;20.60;29.26
27685;BME280;46113;50.130;8.526;2023-06-14T10:44:58;99010.28;;;21.20;27.77
27685;BME280;46113;50.130;8.526;2023-06-14T10:47:29;99003.47;;;21.50;28.36
27685;BME280;46113;50.130;8.526;2023-06-14T10:50:04;99011.50;;;20.47;28.75
27685;BME280;46113;50.130;8.526;2023-06-14T10:52:39;99011.28;;;19.88;29.03
27685;BME280;46113;50.130;8.526;2023-06-14T10:55:16;99011.19;;;20.24;29.75
27685;BME280;46113;50.130;8.526;2023-06-14T10:57:49;99011.03;;;20.25;29.47
27685;BME280;46113;50.130;8.526;2023-06-14T11:00:24;99010.19;;;20.25;29.56
27685;BME280;46113;50.130;8.526;2023-06-14T11:05:30;99008.16;;;20.19;29.47
27685;BME280;46113;50.130;8.526;2023-06-14T11:08:14;99008.06;;;21.07;29.64
27685;BME280;46113;50.130;8.526;2023-06-14T11:10:44;99006.03;;;21.00;27.32
27685;BME280;46113;50.130;8.526;2023-06-14T11:13:16;99001.91;;;21.23;28.05
27685;BME280;46113;50.130;8.526;2023-06-14T11:15:44;99009.88;;;20.89;27.68
27685;BME280;46113;50.130;8.526;2023-06-14T11:18:13;99004.78;;;21.29;27.14
27685;BME280;46113;50.130;8.526;2023-06-14T11:20:40;99011.88;;;20.87;26.97
27685;BME280;46113;50.130;8.526;2023-06-14T11:23:07;99005.06;;;20.67;27.62
27685;BME280;46113;50.130;8.526;2023-06-14T11:25:34;99007.69;;;20.93;27.60
27685;BME280;46113;50.130;8.526;2023-06-14T11:28:01;99004.03;;;20.06;28.31
27685;BME280;46113;50.130;8.526;2023-06-14T11:30:28;99009.59;;;20.40;28.61
27685;BME280;46113;50.130;8.526;2023-06-14T11:32:55;99014.56;;;20.26;28.60
27685;BME280;46113;50.130;8.526;2023-06-14T11:35:25;99005.53;;;19.28;29.60
27685;BME280;46113;50.130;8.526;2023-06-14T11:37:56;99006.88;;;20.05;28.52
27685;BME280;46113;50.130;8.526;2023-06-14T11:40:27;98994.06;;;19.36;28.32
27685;BME280;46113;50.130;8.526;2023-06-14T11:42:59;98999.28;;;20.00;28.14
27685;BME280;46113;50.130;8.526;2023-06-14T11:45:27;98990.50;;;19.35;28.49
27685;BME280;46113;50.130;8.526;2023-06-14T11:47:55;98988.31;;;19.93;28.99
27685;BME280;46113;50.130;8.526;2023-06-14T11:50:23;98989.84;;;20.14;28.46
27685;BME280;46113;50.130;8.526;2023-06-14T11:52:55;98989.66;;;19.71;29.05
27685;BME280;46113;50.130;8.526;2023-06-14T11:55:23;98987.97;;;20.76;28.58
27685;BME280;46113;50.130;8.526;2023-06-14T11:57:52;98985.22;;;21.02;27.75
27685;BME280;46113;50.130;8.526;2023-06-14T12:00:24;98974.06;;;21.49;26.77
27685;BME280;46113;50.130;8.526;2023-06-14T12:02:53;98979.28;;;21.67;27.81
27685;BME280;46113;50.130;8.526;2023-06-14T12:05:24;98978.25;;;21.51;26.81
27685;BME280;46113;50.130;8.526;2023-06-14T12:07:57;98991.34;;;21.38;25.76
27685;BME280;46113;50.130;8.526;2023-06-14T12:10:26;99000.09;;;21.90;26.14
27685;BME280;46113;50.130;8.526;2023-06-14T12:12:59;98993.06;;;21.72;26.62
27685;BME280;46113;50.130;8.526;2023-06-14T12:15:29;98999.81;;;21.00;27.94
27685;BME280;46113;50.130;8.526;2023-06-14T12:17:57;98998.41;;;20.79;27.20
27685;BME280;46113;50.130;8.526;2023-06-14T12:20:29;98981.81;;;19.96;27.60
27685;BME280;46113;50.130;8.526;2023-06-14T12:22:59;98990.19;;;19.93;28.11
27685;BME280;46113;50.130;8.526;2023-06-14T12:25:30;98986.28;;;20.40;27.09
27685;BME280;46113;50.130;8.526;2023-06-14T12:28:07;98992.47;;;20.32;28.34
27685;BME280;46113;50.130;8.526;2023-06-14T12:30:37;98988.31;;;20.73;27.29
27685;BME280;46113;50.130;8.526;2023-06-14T12:33:05;98986.22;;;21.01;28.07
27685;BME280;46113;50.130;8.526;2023-06-14T12:35:33;98983.31;;;21.46;27.18
27685;BME280;46113;50.130;8.526;2023-06-14T12:38:00;98991.53;;;21.45;27.52
27685;BME280;46113;50.130;8.526;2023-06-14T12:40:27;98989.34;;;21.32;27.83
27685;BME280;46113;50.130;8.526;2023-06-14T12:42:54;98987.59;;;21.22;28.07
27685;BME280;46113;50.130;8.526;2023-06-14T12:45:23;98985.41;;;21.17;27.42
27685;BME280;46113;50.130;8.526;2023-06-14T12:47:50;98981.06;;;20.38;28.24
27685;BME280;46113;50.130;8.526;2023-06-14T12:50:18;98982.59;;;20.41;28.70
27685;BME280;46113;50.130;8.526;2023-06-14T12:52:46;98983.19;;;20.96;27.97
27685;BME280;46113;50.130;8.526;2023-06-14T12:55:13;98982.00;;;20.99;28.11
27685;BME280;46113;50.130;8.526;2023-06-14T12:57:41;98985.31;;;20.84;27.86
27685;BME280;46113;50.130;8.526;2023-06-14T13:00:08;98979.19;;;21.17;27.15
27685;BME280;46113;50.130;8.526;2023-06-14T13:02:35;98980.41;;;21.48;27.38
27685;BME280;46113;50.130;8.526;2023-06-14T13:05:02;98984.13;;;21.38;26.54
27685;BME280;46113;50.130;8.526;2023-06-14T13:07:30;98986.66;;;21.56;26.16
27685;BME280;46113;50.130;8.526;2023-06-14T13:09:57;98983.63;;;21.60;27.67
27685;BME280;46113;50.130;8.526;2023-06-14T13:12:24;98982.78;;;21.67;26.76
27685;BME280;46113;50.130;8.526;2023-06-14T13:14:50;98981.13;;;21.50;26.83
27685;BME280;46113;50.130;8.526;2023-06-14T13:17:17;98993.06;;;21.72;26.83
27685;BME280;46113;50.130;8.526;2023-06-14T13:19:44;98981.28;;;21.65;27.05
27685;BME280;46113;50.130;8.526;2023-06-14T13:22:11;98986.97;;;21.45;26.98
27685;BME280;46113;50.130;8.526;2023-06-14T13:24:38;98982.13;;;21.74;27.59
27685;BME280;46113;50.130;8.526;2023-06-14T13:27:05;98981.09;;;21.33;26.63
27685;BME280;46113;50.130;8.526;2023-06-14T13:29:32;98979.91;;;21.44;27.00